Time;durP1;ratioP1;P1;durP2;ratioP2;P2;SDS_P1;SDS_P2;PMS_P1;PMS_P2;Temp;Humidity;BMP_temperature;BMP_pressure;BME280_temperature;BME280_humidity;BME280_pressure;Samples;Min_cycle;Max_cycle;Signal;HPM_P1;HPM_P2
2021/11/17 02:27:35;;;;;;;63.17;29.42;;;;;;;-1.82;62.97;101893.73;1682180;83;21090;-59
2021/11/17 02:30:23;;;;;;;54.65;29.37;;;;;;;-1.82;63.00;101888.58;1690108;82;21012;-60
2021/11/17 02:33:30;;;;;;;47.98;27.80;;;;;;;-1.88;63.12;101883.88;1705317;82;21289;-60
2021/11/17 02:36:30;;;;;;;43.30;25.90;;;;;;;-1.91;63.25;101878.72;1687075;82;21083;-60
2021/11/17 02:39:24;;;;;;;60.98;29.12;;;;;;;-1.98;63.57;101880.91;1681874;82;21055;-59
2021/11/17 02:42:30;;;;;;;50.85;27.15;;;;;;;-2.02;63.74;101874.47;1709651;82;21661;-60
2021/11/17 02:45:08;;;;;;;45.43;26.60;;;;;;;-2.04;63.80;101878.78;1684814;82;22405;-60
2021/11/17 02:48:01;;;;;;;37.13;24.92;;;;;;;-2.06;64.01;101879.63;1593841;86;21004;-60
2021/11/17 02:50:57;;;;;;;38.42;22.67;;;;;;;-2.08;64.10;101884.39;1702650;82;23272;-60
2021/11/17 02:53:38;;;;;;;34.15;22.42;;;;;;;-2.11;64.00;101879.23;1705921;82;22695;-60
2021/11/17 02:56:39;;;;;;;39.98;22.50;;;;;;;-2.15;63.85;101874.52;1653392;84;21088;-60
2021/11/17 02:59:26;;;;;;;40.38;23.35;;;;;;;-2.14;63.79;101872.79;1708689;82;21090;-60
2021/11/17 03:02:17;;;;;;;36.70;23.52;;;;;;;-2.12;63.41;101868.48;1685782;82;21145;-60
2021/11/17 03:05:22;;;;;;;36.68;23.00;;;;;;;-2.10;63.04;101866.74;1703825;82;21310;-60
2021/11/17 03:07:57;;;;;;;36.88;22.75;;;;;;;-2.08;62.71;101868.47;1683664;82;21096;-59
2021/11/17 03:10:32;;;;;;;42.55;23.67;;;;;;;-2.07;62.33;101869.31;1705868;82;21076;-59
2021/11/17 03:13:16;;;;;;;39.75;25.23;;;;;;;-2.09;62.22;101865.89;1664983;84;21441;-60
2021/11/17 03:15:57;;;;;;;44.00;27.27;;;;;;;-2.09;62.27;101870.61;1701256;82;21054;-60
2021/11/17 03:18:53;;;;;;;49.05;25.45;;;;;;;-2.07;62.12;101874.06;1707206;82;21089;-60
2021/11/17 03:21:37;;;;;;;38.85;23.77;;;;;;;-2.06;61.96;101870.60;1675118;82;21778;-60
2021/11/17 03:24:45;;;;;;;44.90;26.37;;;;;;;-2.07;61.82;101870.20;1704996;82;21070;-60
2021/11/17 03:27:28;;;;;;;35.63;23.38;;;;;;;-2.08;61.76;101863.31;1704489;82;21106;-59
2021/11/17 03:30:23;;;;;;;41.28;23.32;;;;;;;-2.04;61.63;101872.33;1682165;82;21051;-60
2021/11/17 03:33:24;;;;;;;38.60;23.92;;;;;;;-2.06;61.45;101869.31;1653987;84;21326;-60
2021/11/17 03:36:14;;;;;;;40.65;25.55;;;;;;;-2.07;61.37;101866.33;1661564;84;21113;-59
2021/11/17 03:39:15;;;;;;;42.60;24.90;;;;;;;-2.07;61.37;101866.33;1653408;84;22399;-60
2021/11/17 03:41:47;;;;;;;37.93;24.40;;;;;;;-2.04;60.87;101866.73;1655324;84;21067;-60
2021/11/17 03:44:34;;;;;;;40.98;24.07;;;;;;;-2.06;60.57;101867.17;1664827;83;21643;-59
2021/11/17 03:47:11;;;;;;;44.63;25.92;;;;;;;-2.07;60.34;101866.33;1702808;82;22015;-60
2021/11/17 03:49:52;;;;;;;38.28;24.15;;;;;;;-2.08;60.21;101867.63;1693647;83;21071;-60
2021/11/17 03:52:48;;;;;;;43.65;23.98;;;;;;;-2.10;60.17;101861.17;1688684;83;21022;-60
2021/11/17 03:55:41;;;;;;;43.28;24.82;;;;;;;-2.08;60.06;101867.63;1679959;83;21090;-60
2021/11/17 03:58:30;;;;;;;43.70;25.65;;;;;;;-2.10;59.84;101866.74;1697919;83;21115;-60
2021/11/17 04:01:20;;;;;;;40.40;24.90;;;;;;;-2.11;59.64;101868.92;1690201;83;21513;-60
2021/11/17 04:04:12;;;;;;;39.18;24.30;;;;;;;-2.15;59.44;101862.91;1652892;85;21123;-59
2021/11/17 04:06:53;;;;;;;40.45;25.30;;;;;;;-2.19;59.51;101856.03;1633380;85;21064;-62
2021/11/17 04:10:03;;;;;;;46.02;27.30;;;;;;;-2.21;59.79;101861.64;1648758;85;21519;-60
2021/11/17 04:12:56;;;;;;;41.30;23.87;;;;;;;-2.18;59.70;101860.34;1654980;85;21082;-61
2021/11/17 04:15:57;;;;;;;43.73;23.50;;;;;;;-2.19;59.53;101859.91;1651024;85;21196;-62
2021/11/17 04:18:51;;;;;;;38.95;25.30;;;;;;;-2.15;59.71;101856.47;1624803;86;21109;-60
2021/11/17 04:21:57;;;;;;;43.83;26.65;;;;;;;-2.15;59.28;101850.02;1626202;86;21091;-62
2021/11/17 04:24:40;;;;;;;43.60;25.57;;;;;;;-2.17;59.13;101846.59;1607672;87;21083;-68
2021/11/17 04:27:40;;;;;;;35.43;22.27;;;;;;;-2.18;59.52;101846.16;1614857;86;21139;-67
2021/11/17 04:30:23;;;;;;;40.88;22.95;;;;;;;-2.17;59.70;101845.72;1646093;85;21447;-69
2021/11/17 04:33:10;;;;;;;42.65;22.98;;;;;;;-2.15;59.46;101841.41;1619899;86;21119;-67
2021/11/17 04:36:15;;;;;;;38.95;24.43;;;;;;;-2.16;59.33;101850.87;1647647;85;21090;-67
2021/11/17 04:38:53;;;;;;;36.83;22.37;;;;;;;-2.15;59.11;101843.98;1615845;86;21060;-66
2021/11/17 04:41:51;;;;;;;37.35;24.63;;;;;;;-2.20;58.95;101833.71;1596653;86;21067;-66
2021/11/17 04:44:50;;;;;;;40.25;24.87;;;;;;;-2.22;58.83;101837.98;1623224;85;21170;-66
2021/11/17 04:47:25;;;;;;;42.70;23.00;;;;;;;-2.25;58.60;101849.63;1618391;86;22007;-67
2021/11/17 04:50:28;;;;;;;33.60;22.80;;;;;;;-2.30;58.48;101844.48;1631806;85;21071;-67
2021/11/17 04:53:15;;;;;;;39.35;22.67;;;;;;;-2.32;58.58;101836.31;1711832;81;21074;-66
2021/11/17 04:56:04;;;;;;;38.40;22.90;;;;;;;-2.32;58.42;101847.91;1712688;81;21042;-66
2021/11/17 04:58:52;;;;;;;38.70;23.30;;;;;;;-2.35;58.46;101843.64;1710135;81;21265;-66
2021/11/17 05:01:45;;;;;;;35.70;22.77;;;;;;;-2.34;58.76;101847.06;1622793;85;21599;-66
2021/11/17 05:04:23;;;;;;;40.40;24.40;;;;;;;-2.30;59.07;101840.61;1709817;81;21546;-68
2021/11/17 05:07:04;;;;;;;40.20;24.27;;;;;;;-2.27;59.22;101835.86;1715089;81;21063;-67
2021/11/17 05:09:45;;;;;;;36.40;22.25;;;;;;;-2.27;59.21;101826.84;1703823;81;21117;-67
2021/11/17 05:12:32;;;;;;;41.73;23.70;;;;;;;-2.26;59.07;101830.70;1684540;82;21213;-67
2021/11/17 05:15:21;;;;;;;40.80;24.87;;;;;;;-2.26;58.91;101829.41;1711119;81;21376;-68
2021/11/17 05:17:56;;;;;;;40.15;24.47;;;;;;;-2.27;58.96;101825.55;1687519;81;22112;-66
2021/11/17 05:21:02;;;;;;;35.20;22.35;;;;;;;-2.27;58.95;101824.25;1713167;82;21220;-68
2021/11/17 05:24:11;;;;;;;41.00;23.30;;;;;;;-2.29;59.04;101829.86;1685372;82;21082;-68
2021/11/17 05:27:11;;;;;;;40.33;24.02;;;;;;;-2.34;59.21;101830.31;1709773;82;21217;-66
2021/11/17 05:30:17;;;;;;;44.05;23.15;;;;;;;-2.34;59.36;101833.73;1690286;82;21032;-66
2021/11/17 05:33:16;;;;;;;34.13;22.52;;;;;;;-2.34;59.38;101832.88;1624522;86;21547;-68
2021/11/17 05:36:12;;;;;;;39.50;24.57;;;;;;;-2.33;59.39;101835.91;1626123;86;21127;-67
2021/11/17 05:38:50;;;;;;;47.20;24.15;;;;;;;-2.34;59.28;101839.33;1702958;81;21059;-66
2021/11/17 05:41:34;;;;;;;45.20;25.40;;;;;;;-2.34;59.24;101841.47;1718410;82;21223;-67
2021/11/17 05:44:21;;;;;;;41.92;24.63;;;;;;;-2.36;59.24;101844.93;1707813;82;21046;-68
2021/11/17 05:47:10;;;;;;;39.48;24.67;;;;;;;-2.32;59.23;101839.77;1711195;82;21094;-68
2021/11/17 05:49:54;;;;;;;43.83;24.20;;;;;;;-2.29;59.00;101844.04;1707745;82;21095;-68
2021/11/17 05:52:48;;;;;;;47.05;26.95;;;;;;;-2.26;59.09;101837.59;1704391;83;21064;-71
2021/11/17 05:55:29;;;;;;;39.00;24.82;;;;;;;-2.23;59.15;101837.58;1705070;82;21532;-70
2021/11/17 05:58:24;;;;;;;42.40;23.75;;;;;;;-2.17;59.04;101832.41;1698171;82;21514;-74
2021/11/17 06:01:16;;;;;;;44.23;24.37;;;;;;;-2.10;59.03;101828.94;1700920;83;21130;-66
2021/11/17 06:04:02;;;;;;;41.25;25.85;;;;;;;-2.07;59.24;101822.48;1707347;82;21063;-71
2021/11/17 06:06:28;;;;;;;38.78;24.65;;;;;;;-2.03;59.47;101825.02;1678708;83;21060;-66
2021/11/17 06:08:54;;;;;;;43.13;25.23;;;;;;;-1.99;59.45;101823.72;1701661;81;21823;-67
2021/11/17 06:11:29;;;;;;;43.73;25.30;;;;;;;-1.96;59.44;101815.12;1699950;82;21030;-67
2021/11/17 06:13:56;;;;;;;42.75;24.50;;;;;;;-1.93;59.55;101810.80;1698600;82;21561;-67
2021/11/17 06:16:22;;;;;;;51.48;26.15;;;;;;;-1.88;59.73;101814.20;1704079;82;21079;-68
2021/11/17 06:18:49;;;;;;;37.25;23.92;;;;;;;-1.83;59.75;101807.73;1682811;83;21098;-65
2021/11/17 06:21:15;;;;;;;40.60;25.25;;;;;;;-1.76;59.83;101808.56;1708913;82;21145;-66
2021/11/17 06:23:56;;;;;;;47.38;26.82;;;;;;;-1.70;59.73;101805.92;1683085;83;21837;-67
2021/11/17 06:26:30;;;;;;;52.05;29.00;;;;;;;-1.67;59.73;101804.61;1708073;82;21051;-70
2021/11/17 06:29:02;;;;;;;56.37;30.48;;;;;;;-1.64;59.78;101800.73;1704271;83;21087;-69
2021/11/17 06:31:29;;;;;;;54.90;31.12;;;;;;;-1.57;59.95;101797.67;1697948;82;21059;-69
2021/11/17 06:33:55;;;;;;;54.90;31.50;;;;;;;-1.51;60.05;101802.36;1699038;82;21122;-69
2021/11/17 06:36:21;;;;;;;56.18;31.17;;;;;;;-1.44;60.19;101804.91;1685614;82;21068;-69
2021/11/17 06:38:48;;;;;;;42.58;26.80;;;;;;;-1.35;60.13;101809.55;1696704;82;21076;-69
2021/11/17 06:41:14;;;;;;;41.08;24.65;;;;;;;-1.23;60.28;101803.87;1706713;82;21067;-69
2021/11/17 06:43:41;;;;;;;39.75;22.42;;;;;;;-1.23;60.28;101803.87;1696313;82;21568;-69
2021/11/17 06:46:07;;;;;;;30.43;20.02;;;;;;;-1.19;60.08;101804.28;1683407;82;21068;-69
2021/11/17 06:48:34;;;;;;;39.03;21.42;;;;;;;-1.15;60.08;101803.37;1658611;84;21012;-68
2021/11/17 06:51:00;;;;;;;33.83;18.75;;;;;;;-1.10;59.95;101809.36;1695503;82;21056;-68
2021/11/17 06:53:27;;;;;;;31.00;20.02;;;;;;;-1.00;60.08;101806.26;1684447;83;21063;-70
2021/11/17 06:55:54;;;;;;;33.05;18.85;;;;;;;-1.00;60.08;101806.26;1704790;82;21301;-68
2021/11/17 06:58:21;;;;;;;36.30;18.90;;;;;;;-1.00;59.96;101809.69;1703222;82;22667;-68
2021/11/17 07:00:50;;;;;;;31.65;17.90;;;;;;;-0.92;60.10;101807.46;1706235;82;21037;-70
2021/11/17 07:03:17;;;;;;;28.02;18.42;;;;;;;-0.92;60.10;101807.46;1694995;82;21058;-70
2021/11/17 07:05:44;;;;;;;31.95;19.05;;;;;;;-0.88;60.09;101802.25;1702819;82;21047;-68
2021/11/17 07:08:10;;;;;;;25.45;16.55;;;;;;;-0.84;60.02;101804.38;1682321;83;21103;-67
2021/11/17 07:10:37;;;;;;;27.95;18.12;;;;;;;-0.82;60.15;101807.83;1701421;82;23385;-68
2021/11/17 07:13:04;;;;;;;28.50;17.77;;;;;;;-0.79;60.27;101804.77;1691269;82;21075;-69
2021/11/17 07:15:31;;;;;;;28.92;17.12;;;;;;;-0.66;60.74;101814.97;1703772;82;21102;-69
2021/11/17 07:17:58;;;;;;;29.20;18.60;;;;;;;-0.66;60.74;101814.97;1701023;82;21051;-68
2021/11/17 07:20:24;;;;;;;29.67;17.82;;;;;;;-0.61;60.55;101816.63;1704772;82;21039;-68
2021/11/17 07:22:51;;;;;;;32.63;18.70;;;;;;;-0.52;60.63;101809.64;1699733;82;21137;-69
2021/11/17 07:25:19;;;;;;;32.00;17.90;;;;;;;-0.42;60.61;101816.01;1690514;83;21083;-68
2021/11/17 07:27:47;;;;;;;32.38;18.15;;;;;;;-0.35;60.39;101812.91;1705285;82;21043;-68
2021/11/17 07:30:17;;;;;;;34.95;20.25;;;;;;;-0.25;60.14;101809.78;1699616;82;21091;-68
2021/11/17 07:32:43;;;;;;;32.15;17.57;;;;;;;-0.25;60.14;101809.78;1703664;82;21080;-69
2021/11/17 07:35:10;;;;;;;35.10;18.35;;;;;;;-0.19;60.15;101808.39;1683064;83;21142;-68
2021/11/17 07:37:37;;;;;;;32.17;19.40;;;;;;;-0.15;60.13;101802.74;1705547;82;21086;-69
2021/11/17 07:40:05;;;;;;;27.17;18.60;;;;;;;-0.11;60.16;101797.97;1676438;82;21122;-69
2021/11/17 07:42:32;;;;;;;32.38;19.12;;;;;;;-0.07;60.10;101800.50;1681340;83;20973;-69
2021/11/17 07:44:59;;;;;;;31.33;19.32;;;;;;;-0.04;60.20;101800.88;1698500;83;21099;-70
2021/11/17 07:47:25;;;;;;;35.15;21.48;;;;;;;-0.02;60.27;101800.41;1685295;83;21100;-69
2021/11/17 07:49:51;;;;;;;36.90;20.75;;;;;;;0.02;60.29;101799.52;1697747;82;21142;-67
2021/11/17 07:52:19;;;;;;;31.50;21.02;;;;;;;0.09;60.32;101802.43;1691205;83;21040;-68
2021/11/17 07:54:45;;;;;;;33.45;19.85;;;;;;;0.16;60.42;101805.34;1697806;83;21051;-67
2021/11/17 07:57:12;;;;;;;30.02;20.32;;;;;;;0.22;60.20;101800.95;1689656;84;21055;-67
2021/11/17 07:59:39;;;;;;;35.35;19.95;;;;;;;0.22;60.20;101800.95;1694709;83;21109;-67
2021/11/17 08:02:08;;;;;;;37.40;20.12;;;;;;;0.30;60.46;101799.99;1692455;84;21013;-72
2021/11/17 08:04:37;;;;;;;34.83;21.35;;;;;;;0.37;60.38;101800.76;1694940;83;21016;-74
2021/11/17 08:07:10;;;;;;;38.67;20.32;;;;;;;0.46;60.56;101803.64;1695229;83;21083;-75
2021/11/17 08:09:36;;;;;;;35.70;20.95;;;;;;;0.55;60.57;101804.78;1690804;83;21063;-64
2021/11/17 08:12:04;;;;;;;31.33;19.15;;;;;;;0.67;60.38;101798.55;1693666;83;21338;-73
2021/11/17 08:14:31;;;;;;;31.42;20.97;;;;;;;0.76;60.31;101801.01;1695665;83;21063;-65
2021/11/17 08:16:57;;;;;;;31.15;18.57;;;;;;;0.82;60.19;101796.16;1690971;84;21044;-64
2021/11/17 08:19:24;;;;;;;34.75;20.02;;;;;;;0.91;60.12;101795.56;1667229;84;21067;-65
2021/11/17 08:21:50;;;;;;;30.77;19.15;;;;;;;0.98;60.09;101795.47;1665464;83;21588;-65
2021/11/17 08:24:17;;;;;;;29.12;17.92;;;;;;;1.06;60.18;101801.34;1663779;84;21123;-62
2021/11/17 08:26:44;;;;;;;29.32;18.80;;;;;;;1.13;60.00;101797.78;1646549;86;21092;-63
2021/11/17 08:29:10;;;;;;;28.92;18.02;;;;;;;1.24;60.01;101800.16;1644799;85;21092;-61
2021/11/17 08:31:37;;;;;;;31.50;18.57;;;;;;;1.31;59.88;101806.94;1645522;85;21112;-62
2021/11/17 08:34:04;;;;;;;28.73;16.80;;;;;;;1.41;59.88;101798.55;1617950;87;21070;-62
2021/11/17 08:36:30;;;;;;;24.82;17.05;;;;;;;1.46;60.00;101796.72;1646376;86;21624;-60
2021/11/17 08:38:57;;;;;;;23.60;14.70;;;;;;;1.55;59.31;101797.85;1646952;86;21045;-61
2021/11/17 08:41:25;;;;;;;26.70;15.72;;;;;;;1.57;59.22;101796.08;1615273;88;21067;-61
2021/11/17 08:43:52;;;;;;;25.23;15.30;;;;;;;1.63;58.97;101792.07;1631800;86;21417;-62
2021/11/17 08:46:18;;;;;;;21.40;14.35;;;;;;;1.66;58.97;101792.02;1634818;85;21155;-61
2021/11/17 08:48:45;;;;;;;22.93;13.55;;;;;;;1.78;59.03;101785.72;1638974;85;21227;-61
2021/11/17 08:51:15;;;;;;;20.90;11.95;;;;;;;1.86;58.95;101776.45;1677899;84;21017;-60
2021/11/17 08:53:44;;;;;;;24.07;13.08;;;;;;;1.95;57.93;101777.98;1650656;85;21491;-63
2021/11/17 08:56:11;;;;;;;28.50;13.95;;;;;;;1.97;57.54;101782.28;1658291;85;21032;-62
2021/11/17 08:58:39;;;;;;;21.15;13.08;;;;;;;2.01;57.74;101775.27;1657779;85;21498;-62
2021/11/17 09:01:06;;;;;;;23.47;11.83;;;;;;;2.07;58.03;101772.97;1660226;83;20984;-62
2021/11/17 09:03:33;;;;;;;25.40;12.13;;;;;;;2.15;57.67;101769.34;1678899;83;21157;-61
2021/11/17 09:06:00;;;;;;;20.35;11.95;;;;;;;2.17;57.35;101760.19;1678288;83;21065;-62
2021/11/17 09:08:28;;;;;;;23.92;12.33;;;;;;;2.23;57.37;101754.86;1681748;84;21538;-62
2021/11/17 09:10:59;;;;;;;21.17;12.30;;;;;;;2.28;57.35;101753.01;1682588;83;21497;-62
2021/11/17 09:13:27;;;;;;;21.40;12.68;;;;;;;2.39;57.16;101761.86;1675872;83;21086;-62
2021/11/17 09:15:56;;;;;;;22.35;13.45;;;;;;;2.45;56.70;101755.66;1683818;84;21585;-63
2021/11/17 09:18:26;;;;;;;25.75;13.53;;;;;;;2.51;56.80;101749.02;1657537;85;21029;-63
2021/11/17 09:20:54;;;;;;;21.23;13.28;;;;;;;2.53;57.03;101739.44;1677218;83;21078;-62
2021/11/17 09:23:21;;;;;;;21.65;13.03;;;;;;;2.61;56.94;101741.41;1641962;85;21058;-62
2021/11/17 09:25:48;;;;;;;26.90;14.53;;;;;;;2.70;56.82;101742.91;1657668;84;22563;-62
2021/11/17 09:28:14;;;;;;;22.87;11.97;;;;;;;2.82;56.71;101734.79;1661055;84;21080;-62
2021/11/17 09:30:41;;;;;;;15.60;8.08;;;;;;;2.91;56.51;101734.56;1637404;85;21066;-61
2021/11/17 09:33:10;;;;;;;11.18;6.72;;;;;;;2.97;55.09;101723.13;1676101;83;21134;-63
2021/11/17 09:35:38;;;;;;;13.72;6.92;;;;;;;3.01;54.63;101721.30;1682736;83;21572;-62
2021/11/17 09:38:05;;;;;;;12.45;7.58;;;;;;;3.06;54.18;101721.60;1647342;85;21129;-62
2021/11/17 09:40:42;;;;;;;16.37;8.80;;;;;;;3.10;53.83;101722.37;1660379;84;21092;-62
2021/11/17 09:43:10;;;;;;;15.03;7.80;;;;;;;3.18;53.79;101710.43;1658766;85;21096;-62
2021/11/17 09:45:38;;;;;;;12.85;6.90;;;;;;;3.18;53.20;101713.03;1683598;84;21750;-62
2021/11/17 09:48:05;;;;;;;14.70;7.95;;;;;;;3.22;52.96;101705.56;1639408;86;21597;-62
2021/11/17 09:50:50;;;;;;;13.60;8.13;;;;;;;3.26;53.13;101700.67;1661851;84;21140;-62
2021/11/17 09:53:49;;;;;;;13.35;8.10;;;;;;;3.30;52.80;101700.55;1663838;84;21100;-63
2021/11/17 09:56:26;;;;;;;15.10;7.95;;;;;;;3.35;52.87;101693.92;1667819;84;21065;-63
2021/11/17 09:58:58;;;;;;;14.45;7.90;;;;;;;3.40;52.82;101695.94;1660980;84;21070;-61
2021/11/17 10:01:42;;;;;;;19.12;9.23;;;;;;;3.46;52.29;101685.36;1664108;84;21583;-65
2021/11/17 10:04:30;;;;;;;17.57;7.90;;;;;;;3.48;52.45;101686.59;1656613;85;21152;-63
2021/11/17 10:13:08;;;;;;;13.75;8.45;;;;;;;3.59;51.91;101681.08;1665488;84;21063;-68
2021/11/17 10:15:37;;;;;;;20.50;8.20;;;;;;;3.60;51.44;101681.46;1655715;84;21579;-67
2021/11/17 10:18:44;;;;;;;14.58;8.13;;;;;;;3.64;51.62;101685.23;1659688;84;21091;-68
2021/11/17 10:21:24;;;;;;;12.40;6.50;;;;;;;3.74;51.29;101680.61;1663192;84;21160;-66
2021/11/17 10:24:10;;;;;;;12.90;6.90;;;;;;;3.81;50.77;101680.81;1658537;85;21086;-66
2021/11/17 10:26:54;;;;;;;10.72;6.37;;;;;;;3.86;49.80;101674.17;1634366;85;21715;-65
2021/11/17 10:29:35;;;;;;;11.18;5.70;;;;;;;3.87;49.84;101674.13;1664981;84;21580;-63
2021/11/17 10:32:16;;;;;;;13.88;6.80;;;;;;;3.90;49.44;101677.94;1664653;85;21173;-61
2021/11/17 10:34:58;;;;;;;11.97;6.90;;;;;;;3.88;49.09;101673.23;1677846;85;21911;-71
2021/11/17 10:37:44;;;;;;;13.38;5.95;;;;;;;3.96;49.61;101663.02;1676542;84;21139;-64
2021/11/17 10:40:22;;;;;;;;;;;;;;;4.03;49.34;101661.91;1645095;86;21040;-61
2021/11/17 10:43:01;;;;;;;10.90;5.85;;;;;;;4.12;48.62;101660.33;1646650;84;20218;-67
2021/11/17 10:45:36;;;;;;;10.88;6.10;;;;;;;4.11;48.80;101661.67;1674327;83;21139;-65
2021/11/17 10:48:03;;;;;;;11.78;6.08;;;;;;;4.15;48.68;101658.05;1674751;83;21082;-65
2021/11/17 10:50:35;;;;;;;11.60;6.45;;;;;;;4.23;48.19;101658.66;1665184;83;21077;-62
2021/11/17 10:53:16;;;;;;;10.90;5.30;;;;;;;4.31;48.18;101659.72;1652240;85;21113;-66
2021/11/17 10:55:46;;;;;;;13.43;6.22;;;;;;;4.32;48.01;101652.28;1660847;83;21043;-61
2021/11/17 10:58:18;;;;;;;10.75;6.47;;;;;;;4.38;47.95;101650.78;1697712;82;21828;-66
2021/11/17 11:01:13;;;;;;;13.35;5.80;;;;;;;4.46;48.04;101646.16;1685921;83;21149;-67
2021/11/17 11:03:37;;;;;;;14.85;6.75;;;;;;;4.50;48.03;101636.02;1687335;82;21067;-62
2021/11/17 11:06:33;;;;;;;12.53;6.60;;;;;;;4.57;47.94;101637.53;1681892;83;21000;-65
2021/11/17 11:09:22;;;;;;;14.43;6.87;;;;;;;4.62;47.81;101630.83;1696269;83;21048;-62
2021/11/17 11:11:51;;;;;;;13.35;5.80;;;;;;;4.68;47.69;101625.41;1699778;82;21179;-62
2021/11/17 11:14:22;;;;;;;13.20;6.33;;;;;;;4.72;47.28;101620.93;1695046;83;21158;-62
2021/11/17 11:16:57;;;;;;;12.85;6.75;;;;;;;4.75;46.93;101613.84;1686666;83;21056;-63
2021/11/17 11:19:26;;;;;;;;;;;;;;;4.76;46.46;101605.12;1640280;83;21049;-62
2021/11/17 11:23:28;;;;;;;10.90;7.00;;;;;;;4.85;47.08;101601.33;1783606;78;22693;-62
2021/11/17 11:26:09;;;;;;;12.23;6.50;;;;;;;4.84;47.02;101601.80;1746127;80;21025;-62
2021/11/17 11:28:55;;;;;;;15.05;6.65;;;;;;;4.96;46.17;101598.31;1712716;81;21163;-63
2021/11/17 11:31:32;;;;;;;13.08;6.70;;;;;;;5.07;45.76;101599.23;1676837;82;21105;-61
2021/11/17 11:34:03;;;;;;;12.45;6.22;;;;;;;5.06;45.65;101596.22;1683453;81;21094;-63
2021/11/17 11:36:33;;;;;;;12.50;6.78;;;;;;;5.41;45.74;101588.34;1677890;82;21164;-63
2021/11/17 11:39:05;;;;;;;12.13;6.97;;;;;;;5.62;45.38;101593.65;1711257;82;20928;-63
2021/11/17 11:41:46;;;;;;;12.13;6.22;;;;;;;5.72;45.44;101582.77;1712367;83;21168;-63
2021/11/17 11:44:23;;;;;;;14.47;6.80;;;;;;;5.79;45.07;101586.44;1715334;83;21022;-63
2021/11/17 11:47:01;;;;;;;13.80;6.92;;;;;;;5.81;44.89;101589.83;1709174;82;21554;-63
2021/11/17 11:49:51;;;;;;;14.15;6.25;;;;;;;5.84;44.87;101585.33;1676024;82;21062;-63
2021/11/17 11:52:29;;;;;;;13.22;5.72;;;;;;;5.81;44.69;101587.22;1710270;83;21179;-64
2021/11/17 11:55:11;;;;;;;12.15;6.67;;;;;;;5.79;45.05;101578.14;1709546;82;21247;-62
2021/11/17 11:57:53;;;;;;;12.23;7.47;;;;;;;5.81;45.24;101578.08;1709507;82;21532;-62
2021/11/17 12:00:32;;;;;;;14.07;7.40;;;;;;;5.83;44.40;101573.63;1684602;83;21027;-63
2021/11/17 12:03:02;;;;;;;13.45;7.65;;;;;;;5.81;44.46;101580.22;1685974;82;21003;-63
2021/11/17 12:06:15;;;;;;;14.35;7.78;;;;;;;5.78;44.47;101572.51;1685744;83;21571;-63
2021/11/17 12:09:01;;;;;;;12.93;7.42;;;;;;;5.75;44.03;101570.89;1708225;82;22347;-63
2021/11/17 12:11:31;;;;;;;16.15;8.43;;;;;;;5.73;43.55;101566.19;1704573;82;21039;-62
2021/11/17 12:14:10;;;;;;;15.85;7.33;;;;;;;5.77;43.35;101571.67;1684660;82;21015;-63
2021/11/17 12:16:46;;;;;;;11.35;6.78;;;;;;;5.78;42.77;101562.06;1683633;82;21083;-62
2021/11/17 12:19:30;;;;;;;15.50;7.33;;;;;;;5.80;42.99;101551.55;1702097;82;21070;-64
2021/11/17 12:22:08;;;;;;;13.20;7.08;;;;;;;5.85;43.29;101549.16;1704811;83;21155;-62
2021/11/17 12:24:42;;;;;;;13.98;7.33;;;;;;;5.94;43.08;101553.15;1673833;83;21496;-61
2021/11/17 12:27:16;;;;;;;15.30;7.15;;;;;;;6.04;42.84;101544.03;1671106;83;21040;-63
2021/11/17 12:29:54;;;;;;;14.60;7.20;;;;;;;6.23;42.40;101549.31;1674017;84;21087;-63
2021/11/17 12:32:35;;;;;;;14.75;6.58;;;;;;;7.77;40.72;101555.30;1671835;83;21051;-63
2021/11/17 12:35:10;;;;;;;17.37;7.80;;;;;;;9.13;38.55;101538.21;1697352;83;21133;-63
2021/11/17 12:37:52;;;;;;;14.70;7.08;;;;;;;10.46;36.49;101547.21;1687274;83;21019;-63
2021/11/17 12:40:41;;;;;;;12.18;6.05;;;;;;;11.56;34.98;101543.30;1674804;83;21552;-64
2021/11/17 12:43:14;;;;;;;12.65;6.15;;;;;;;12.57;33.23;101547.98;1696652;83;21657;-64
2021/11/17 12:45:52;;;;;;;12.70;7.53;;;;;;;13.45;31.82;101538.63;1669259;83;21052;-63
2021/11/17 12:48:27;;;;;;;16.32;7.08;;;;;;;14.20;30.62;101537.88;1694221;82;21119;-62
2021/11/17 12:51:05;;;;;;;14.03;7.00;;;;;;;14.82;29.37;101536.59;1700697;82;21101;-62
2021/11/17 12:53:37;;;;;;;11.93;7.42;;;;;;;15.17;28.25;101539.55;1688887;82;21070;-63
2021/11/17 12:56:31;;;;;;;12.20;6.85;;;;;;;15.40;28.42;101540.32;1693053;83;21138;-63
2021/11/17 12:59:03;;;;;;;10.93;7.28;;;;;;;15.68;28.16;101540.18;1666834;83;21854;-64
2021/11/17 13:01:37;;;;;;;13.15;7.33;;;;;;;16.00;27.65;101539.81;1688622;82;21188;-63
2021/11/17 13:04:17;;;;;;;11.90;7.50;;;;;;;16.13;27.20;101540.45;1693423;83;21095;-64
2021/11/17 13:06:56;;;;;;;12.78;8.05;;;;;;;16.05;27.09;101538.94;1689248;82;21536;-64
2021/11/17 13:09:46;;;;;;;11.73;7.17;;;;;;;15.96;26.87;101537.91;1722667;80;21067;-62
2021/11/17 13:12:20;;;;;;;14.60;8.13;;;;;;;15.78;27.05;101529.68;1707959;82;21536;-63
2021/11/17 13:14:52;;;;;;;11.93;7.08;;;;;;;15.74;26.91;101533.05;1667426;84;22532;-64
2021/11/17 13:17:35;;;;;;;15.10;8.45;;;;;;;15.63;26.85;101527.78;1697741;82;21549;-66
2021/11/17 13:20:30;;;;;;;11.43;7.45;;;;;;;15.42;27.01;101528.60;1689108;83;21111;-64
2021/11/17 13:23:13;;;;;;;13.72;9.20;;;;;;;15.17;27.20;101525.80;1693619;82;21067;-64
2021/11/17 13:25:51;;;;;;;14.18;8.33;;;;;;;15.05;27.47;101533.42;1701455;82;21552;-64
2021/11/17 13:28:36;;;;;;;14.58;8.93;;;;;;;14.92;27.50;101533.56;1696731;83;21142;-64
2021/11/17 13:31:33;;;;;;;13.30;7.90;;;;;;;14.80;27.52;101531.90;1705933;82;21055;-64
2021/11/17 13:34:11;;;;;;;14.13;8.20;;;;;;;14.61;27.57;101532.53;1703208;82;26613;-64
2021/11/17 13:36:52;;;;;;;15.25;8.90;;;;;;;14.24;27.91;101536.20;1718001;80;21062;-64
2021/11/17 13:39:24;;;;;;;14.65;8.88;;;;;;;13.63;28.46;101534.23;1747388;80;21438;-63
2021/11/17 13:41:54;;;;;;;13.88;7.90;;;;;;;12.89;29.07;101527.69;1721978;81;21077;-64
2021/11/17 13:44:24;;;;;;;15.72;9.45;;;;;;;12.10;29.90;101527.04;1723063;82;21070;-65
2021/11/17 13:47:14;;;;;;;17.48;9.33;;;;;;;11.31;30.70;101522.98;1739910;80;21611;-64
2021/11/17 13:49:44;;;;;;;13.53;8.55;;;;;;;10.59;31.70;101521.80;1722046;80;21075;-65
2021/11/17 13:52:12;;;;;;;17.85;8.33;;;;;;;9.78;32.85;101522.27;1719298;81;21144;-70
2021/11/17 13:54:39;;;;;;;16.97;8.83;;;;;;;9.17;33.75;101528.77;1740089;80;21069;-63
2021/11/17 13:57:08;;;;;;;16.62;9.05;;;;;;;8.61;34.62;101524.39;1743578;81;21034;-64
2021/11/17 13:59:35;;;;;;;18.70;8.98;;;;;;;8.13;35.52;101527.31;1722039;80;21632;-66
2021/11/17 14:02:02;;;;;;;17.77;8.58;;;;;;;7.66;36.43;101527.47;1702804;82;21114;-63
2021/11/17 14:04:28;;;;;;;15.68;8.60;;;;;;;7.24;37.19;101523.40;1693974;82;21110;-64
2021/11/17 14:06:56;;;;;;;17.35;8.60;;;;;;;6.85;37.88;101516.52;1670101;83;21178;-63
2021/11/17 14:09:22;;;;;;;14.68;8.65;;;;;;;6.51;38.66;101520.67;1670571;83;21626;-72
2021/11/17 14:11:49;;;;;;;13.88;8.53;;;;;;;6.22;39.32;101515.40;1666701;83;21095;-72
2021/11/17 14:14:16;;;;;;;40.70;11.45;;;;;;;5.97;39.96;101516.48;1701656;82;21084;-70
2021/11/17 14:16:42;;;;;;;15.70;7.75;;;;;;;5.75;40.60;101508.67;1699137;83;21800;-70
2021/11/17 14:19:09;;;;;;;15.00;7.78;;;;;;;5.61;41.04;101509.69;1695185;83;21164;-77
2021/11/17 14:21:37;;;;;;;34.48;10.50;;;;;;;5.43;41.44;101503.02;1673537;83;21030;-71
2021/11/17 14:24:04;;;;;;;19.98;8.13;;;;;;;5.25;41.84;101508.50;1693983;82;21062;-72
2021/11/17 14:26:33;;;;;;;16.42;7.80;;;;;;;5.12;42.26;101509.44;1675241;82;21045;-76
2021/11/17 14:29:04;;;;;;;13.22;8.23;;;;;;;4.98;42.48;101502.16;1697451;83;21107;-71
2021/11/17 14:31:41;;;;;;;14.00;8.20;;;;;;;4.87;42.70;101504.78;1700356;82;21226;-71
2021/11/17 14:34:07;;;;;;;12.60;7.05;;;;;;;4.75;42.87;101506.09;1697003;83;20984;-69
2021/11/17 14:36:38;;;;;;;15.05;7.28;;;;;;;4.63;43.23;101502.19;1671817;83;22357;-70
2021/11/17 14:39:07;;;;;;;14.83;7.30;;;;;;;4.52;43.51;101507.78;1701800;83;21121;-77